Time;durP1;ratioP1;P1;durP2;ratioP2;P2;SDS_P1;SDS_P2;PMS_P1;PMS_P2;Temp;Humidity;BMP_temperature;BMP_pressure;BME280_temperature;BME280_humidity;BME280_pressure;Samples;Min_cycle;Max_cycle;Signal;HPM_P1;HPM_P2
2024/03/17 00:02:18;;;;;;;9.30;8.40;;;;;;;8.29;100.00;99082.07;109511;1251;58984;-71
2024/03/17 00:04:45;;;;;;;9.90;8.90;;;;;;;8.20;100.00;99085.56;109515;1251;66089;-70
2024/03/17 00:07:12;;;;;;;10.70;9.70;;;;;;;8.13;100.00;99091.10;109535;1251;60040;-70
2024/03/17 00:09:39;;;;;;;7.90;7.20;;;;;;;8.07;100.00;99098.48;109526;1251;63742;-70
2024/03/17 00:12:07;;;;;;;7.10;6.50;;;;;;;8.00;100.00;99102.07;109489;1251;58978;-70
2024/03/17 00:14:34;;;;;;;9.50;8.70;;;;;;;7.92;100.00;99110.30;109187;1251;59051;-69
2024/03/17 00:17:01;;;;;;;5.80;5.30;;;;;;;7.84;100.00;99116.73;109557;1251;65943;-69
2024/03/17 00:19:28;;;;;;;5.70;5.20;;;;;;;7.72;100.00;99120.06;109524;1251;58995;-69
2024/03/17 00:21:54;;;;;;;4.90;4.30;;;;;;;7.60;100.00;99120.14;109540;1251;58968;-69
2024/03/17 00:24:20;;;;;;;4.70;4.30;;;;;;;7.47;100.00;99120.99;109558;1251;59021;-69
2024/03/17 00:26:48;;;;;;;4.50;4.10;;;;;;;7.37;100.00;99127.20;109582;1251;59106;-70
2024/03/17 00:29:15;;;;;;;5.20;4.50;;;;;;;7.31;100.00;99126.43;109524;1250;66091;-70
2024/03/17 00:31:41;;;;;;;5.00;4.50;;;;;;;7.25;100.00;99120.38;109552;1251;58989;-68
2024/03/17 00:34:09;;;;;;;5.30;4.30;;;;;;;7.20;100.00;99120.11;109519;1251;59113;-69
2024/03/17 00:36:36;;;;;;;8.40;4.50;;;;;;;7.16;100.00;99120.66;109546;1251;58929;-70
2024/03/17 00:39:03;;;;;;;6.60;5.50;;;;;;;7.14;100.00;99125.75;109515;1251;59030;-70
2024/03/17 00:41:29;;;;;;;6.10;4.70;;;;;;;7.11;100.00;99131.01;109518;1251;65786;-69
2024/03/17 00:43:56;;;;;;;5.70;5.20;;;;;;;7.08;100.00;99138.92;109560;1251;60619;-70
2024/03/17 00:46:24;;;;;;;6.20;5.60;;;;;;;7.05;100.00;99145.43;109483;1251;62867;-70
2024/03/17 00:48:50;;;;;;;6.80;5.10;;;;;;;7.02;100.00;99149.64;109554;1251;59022;-70
2024/03/17 00:51:17;;;;;;;6.70;5.30;;;;;;;7.00;100.00;99152.90;109509;1251;59456;-70
2024/03/17 00:53:43;;;;;;;6.10;5.50;;;;;;;6.98;100.00;99163.59;109571;1251;58947;-71
2024/03/17 00:56:09;;;;;;;7.70;5.90;;;;;;;6.97;100.00;99167.89;109483;1251;58959;-70
2024/03/17 00:58:36;;;;;;;6.40;5.40;;;;;;;6.95;100.00;99167.45;109553;1251;59347;-70
2024/03/17 01:01:02;;;;;;;8.90;6.20;;;;;;;6.95;100.00;99169.41;109506;1251;59020;-71
2024/03/17 01:03:28;;;;;;;10.20;6.40;;;;;;;6.94;100.00;99172.83;109532;1251;58990;-72
2024/03/17 01:05:55;;;;;;;7.20;6.40;;;;;;;6.90;100.00;99174.75;109497;1251;59102;-71
2024/03/17 01:08:21;;;;;;;6.80;5.60;;;;;;;6.88;100.00;99178.23;109360;1251;59374;-70
2024/03/17 01:10:51;;;;;;;8.30;6.40;;;;;;;6.87;100.00;99183.25;109496;1251;59003;-71
2024/03/17 01:13:18;;;;;;;8.60;6.00;;;;;;;6.85;100.00;99185.83;109545;1251;58933;-70
2024/03/17 01:15:44;;;;;;;9.00;7.10;;;;;;;6.82;100.00;99187.52;109490;1251;58981;-70
2024/03/17 01:18:11;;;;;;;8.40;6.50;;;;;;;6.80;100.00;99189.90;109402;1251;59382;-71
2024/03/17 01:20:38;;;;;;;12.20;7.70;;;;;;;6.78;100.00;99194.27;109530;1251;59040;-70
2024/03/17 01:23:05;;;;;;;7.80;6.50;;;;;;;6.75;100.00;99198.46;109387;1251;62649;-71
2024/03/17 01:25:35;;;;;;;14.40;12.90;;;;;;;6.70;100.00;99209.13;109494;1251;58940;-70
2024/03/17 01:28:06;;;;;;;15.80;13.50;;;;;;;6.58;100.00;99207.90;109580;1251;59120;-71
2024/03/17 01:30:34;;;;;;;14.70;12.70;;;;;;;6.47;100.00;99224.34;109593;1251;65909;-70
2024/03/17 01:33:00;;;;;;;13.70;10.90;;;;;;;6.39;100.00;99225.77;109562;1251;60590;-71
2024/03/17 01:35:27;;;;;;;11.60;10.50;;;;;;;6.34;100.00;99224.57;109289;1251;62958;-72
2024/03/17 01:37:54;;;;;;;16.40;13.10;;;;;;;6.28;100.00;99235.98;109529;1251;58984;-70
2024/03/17 01:40:21;;;;;;;24.50;19.00;;;;;;;6.19;100.00;99248.72;109579;1251;59225;-69
2024/03/17 01:42:47;;;;;;;27.10;22.20;;;;;;;6.08;100.00;99259.78;109578;1251;64861;-70
2024/03/17 01:45:25;;;;;;;29.50;22.90;;;;;;;5.98;100.00;99263.26;109545;1251;60328;-70
2024/03/17 01:47:52;;;;;;;32.30;24.00;;;;;;;5.86;100.00;99264.95;109512;1250;62845;-69
2024/03/17 01:50:24;;;;;;;34.90;27.80;;;;;;;5.78;100.00;99271.33;109562;1251;58956;-70
2024/03/17 01:52:56;;;;;;;23.70;19.90;;;;;;;5.72;100.00;99274.89;109555;1251;59360;-70
2024/03/17 01:55:23;;;;;;;27.00;21.30;;;;;;;5.71;100.00;99274.08;109573;1251;65921;-70
2024/03/17 01:57:50;;;;;;;24.00;17.70;;;;;;;5.68;100.00;99276.66;109566;1251;59142;-69
2024/03/17 02:00:16;;;;;;;18.00;15.60;;;;;;;5.65;100.00;99282.92;109501;1251;65640;-69
2024/03/17 02:02:43;;;;;;;14.00;12.20;;;;;;;5.64;100.00;99283.70;109525;1251;58936;-70
2024/03/17 02:05:10;;;;;;;14.20;9.70;;;;;;;5.63;100.00;99279.54;109547;1251;59011;-70
2024/03/17 02:07:36;;;;;;;11.20;10.10;;;;;;;5.61;100.00;99280.46;109525;1251;64684;-70
2024/03/17 02:10:03;;;;;;;8.70;7.60;;;;;;;5.62;100.00;99282.22;109504;1251;59477;-71
2024/03/17 02:12:31;;;;;;;9.20;7.50;;;;;;;5.61;100.00;99282.25;109496;1251;62865;-71
2024/03/17 02:14:58;;;;;;;11.00;7.70;;;;;;;5.61;100.00;99288.42;109486;1251;58993;-70
2024/03/17 02:17:28;;;;;;;12.10;7.30;;;;;;;5.61;100.00;99290.88;109584;1251;58855;-70
2024/03/17 02:19:54;;;;;;;;;;;;;;;5.62;100.00;99293.86;109544;1251;65949;-71
2024/03/17 02:22:21;;;;;;;11.30;7.60;;;;;;;5.62;100.00;99293.67;109580;1250;58916;-71
2024/03/17 02:24:47;;;;;;;10.00;8.50;;;;;;;5.62;100.00;99294.39;109496;1251;59745;-71
2024/03/17 02:27:14;;;;;;;11.40;8.80;;;;;;;5.63;100.00;99295.57;109534;1251;58959;-71
2024/03/17 02:29:40;;;;;;;12.60;8.90;;;;;;;5.64;100.00;99299.19;109512;1251;59045;-71
2024/03/17 02:32:07;;;;;;;13.40;8.70;;;;;;;5.65;100.00;99296.50;109506;1251;59023;-71
2024/03/17 02:34:34;;;;;;;11.60;8.50;;;;;;;5.67;100.00;99299.09;109611;1251;58938;-71
2024/03/17 02:37:03;;;;;;;9.70;8.30;;;;;;;5.68;100.00;99295.15;109474;1251;64067;-71
2024/03/17 02:39:35;;;;;;;15.00;9.50;;;;;;;5.68;100.00;99294.79;109472;1251;58925;-70
2024/03/17 02:42:06;;;;;;;9.60;7.80;;;;;;;5.69;100.00;99290.17;109554;1251;59015;-70
2024/03/17 02:44:35;;;;;;;10.60;8.40;;;;;;;5.70;100.00;99288.02;109525;1251;64867;-71
2024/03/17 02:47:08;;;;;;;12.70;10.50;;;;;;;5.71;100.00;99289.40;109548;1251;59934;-70
2024/03/17 02:49:37;;;;;;;12.10;9.60;;;;;;;5.71;100.00;99294.67;109549;1251;63011;-71
2024/03/17 02:52:06;;;;;;;14.40;9.60;;;;;;;5.71;100.00;99296.27;109570;1251;60051;-71
2024/03/17 02:54:35;;;;;;;10.10;9.10;;;;;;;5.71;100.00;99299.97;109498;1251;59752;-71
2024/03/17 02:57:02;;;;;;;10.80;8.80;;;;;;;5.71;100.00;99298.40;109541;1251;66945;-70
2024/03/17 02:59:28;;;;;;;11.10;8.60;;;;;;;5.71;100.00;99299.42;109503;1251;60174;-71
2024/03/17 03:01:55;;;;;;;14.20;10.40;;;;;;;5.72;100.00;99299.73;109521;1251;59855;-72
2024/03/17 03:04:21;;;;;;;20.70;15.90;;;;;;;5.73;100.00;99300.76;109552;1251;59791;-71
2024/03/17 03:06:48;;;;;;;19.70;17.70;;;;;;;5.73;100.00;99300.40;109568;1251;59772;-71
2024/03/17 03:09:20;;;;;;;22.00;18.60;;;;;;;5.75;100.00;99301.40;108756;1251;1002419;-71
2024/03/17 03:11:47;;;;;;;32.20;20.10;;;;;;;5.76;100.00;99302.25;109580;1251;60209;-71
2024/03/17 03:14:13;;;;;;;16.70;15.00;;;;;;;5.76;100.00;99302.94;108734;1251;1002921;-71
2024/03/17 03:16:39;;;;;;;16.90;13.20;;;;;;;5.77;100.00;99306.07;109513;1251;59733;-71
2024/03/17 03:19:06;;;;;;;11.50;9.30;;;;;;;5.77;100.00;99309.94;109548;1251;59972;-72
2024/03/17 03:21:32;;;;;;;10.30;8.70;;;;;;;5.78;100.00;99311.87;109382;1251;60025;-72
2024/03/17 03:23:58;;;;;;;12.30;9.00;;;;;;;5.78;100.00;99312.36;109511;1251;59942;-72
2024/03/17 03:26:25;;;;;;;10.50;9.10;;;;;;;5.78;100.00;99314.84;109495;1251;59835;-72
2024/03/17 03:28:51;;;;;;;12.90;7.70;;;;;;;5.77;100.00;99318.61;109508;1251;60005;-72
2024/03/17 03:31:17;;;;;;;14.20;10.10;;;;;;;5.76;100.00;99321.47;109533;1251;59871;-72
2024/03/17 03:33:44;;;;;;;12.00;8.10;;;;;;;5.75;100.00;99324.84;109492;1251;60066;-71
2024/03/17 03:36:12;;;;;;;9.70;6.20;;;;;;;5.73;100.00;99334.45;109540;1251;59815;-71
2024/03/17 03:38:39;;;;;;;15.80;7.90;;;;;;;5.70;100.00;99339.67;109526;1251;63843;-71
2024/03/17 03:41:07;;;;;;;11.00;6.10;;;;;;;5.69;100.00;99344.31;109506;1251;59778;-71
2024/03/17 03:43:33;;;;;;;10.40;5.50;;;;;;;5.68;100.00;99340.84;109537;1251;59771;-71
2024/03/17 03:46:01;;;;;;;10.10;5.80;;;;;;;5.65;100.00;99343.22;109528;1250;60372;-71
2024/03/17 03:48:27;;;;;;;9.30;5.00;;;;;;;5.62;100.00;99346.55;109536;1251;60074;-71
2024/03/17 03:50:56;;;;;;;7.90;4.70;;;;;;;5.60;100.00;99350.34;109501;1251;59841;-71
2024/03/17 03:53:23;;;;;;;6.80;4.60;;;;;;;5.58;100.00;99357.83;109473;1251;59752;-71
2024/03/17 03:55:49;;;;;;;12.00;5.10;;;;;;;5.56;100.00;99364.95;109561;1251;59875;-72
2024/03/17 03:58:15;;;;;;;10.50;4.30;;;;;;;5.54;100.00;99367.50;109544;1250;60080;-71
2024/03/17 04:00:42;;;;;;;6.90;4.40;;;;;;;5.50;100.00;99366.93;109534;1251;60061;-72
2024/03/17 04:03:08;;;;;;;7.70;5.40;;;;;;;5.47;100.00;99372.54;109256;1251;59954;-70
2024/03/17 04:05:34;;;;;;;9.80;5.60;;;;;;;5.43;100.00;99374.61;109539;1251;59738;-72
2024/03/17 04:08:01;;;;;;;10.60;4.50;;;;;;;5.38;100.00;99374.66;109616;1251;60039;-70
2024/03/17 04:10:27;;;;;;;7.70;4.30;;;;;;;5.30;100.00;99382.35;109527;1250;60116;-71
2024/03/17 04:12:53;;;;;;;7.50;4.30;;;;;;;5.24;100.00;99385.23;109553;1250;59754;-71
2024/03/17 04:15:20;;;;;;;12.10;4.00;;;;;;;5.16;100.00;99391.87;109555;1251;59904;-71
2024/03/17 04:17:47;;;;;;;9.30;3.30;;;;;;;5.10;100.00;99392.65;109581;1251;59807;-72
2024/03/17 04:20:13;;;;;;;12.60;3.20;;;;;;;5.01;100.00;99396.50;109336;1251;60102;-72
2024/03/17 04:22:42;;;;;;;9.10;3.20;;;;;;;4.93;100.00;99398.21;109550;1251;59850;-72
2024/03/17 04:25:10;;;;;;;11.40;4.00;;;;;;;4.86;100.00;99398.48;109547;1251;60161;-71
2024/03/17 04:27:36;;;;;;;5.90;3.40;;;;;;;4.79;100.00;99401.35;109563;1251;63077;-71
2024/03/17 04:30:05;;;;;;;6.90;3.80;;;;;;;4.70;100.00;99403.62;109478;1251;60124;-71
2024/03/17 04:32:32;;;;;;;9.20;4.10;;;;;;;4.60;100.00;99402.95;109447;1251;60130;-71
2024/03/17 04:34:59;;;;;;;11.50;4.30;;;;;;;4.52;100.00;99407.13;109558;1250;66487;-72
2024/03/17 04:37:26;;;;;;;9.80;5.00;;;;;;;4.44;100.00;99414.95;109527;1251;60215;-72
2024/03/17 04:39:52;;;;;;;6.80;3.70;;;;;;;4.37;100.00;99420.48;109323;1251;59870;-70
2024/03/17 04:42:19;;;;;;;9.80;4.70;;;;;;;4.30;100.00;99419.13;109494;1251;59767;-71
2024/03/17 04:44:46;;;;;;;5.90;3.80;;;;;;;4.23;100.00;99420.43;109590;1251;59971;-71
2024/03/17 04:47:12;;;;;;;10.10;3.30;;;;;;;4.16;100.00;99424.18;109549;1251;68451;-71
2024/03/17 04:49:43;;;;;;;5.20;2.80;;;;;;;4.10;100.00;99426.17;109528;1251;59897;-72
2024/03/17 04:52:11;;;;;;;11.40;2.90;;;;;;;4.04;100.00;99425.14;109482;1251;62757;-72
2024/03/17 04:54:37;;;;;;;7.10;2.90;;;;;;;3.98;100.00;99426.38;109534;1251;60279;-71
2024/03/17 04:57:04;;;;;;;6.70;2.90;;;;;;;3.93;100.00;99432.88;109543;1251;59693;-72
2024/03/17 04:59:34;;;;;;;9.40;3.30;;;;;;;3.88;100.00;99435.48;109552;1251;60077;-72
2024/03/17 05:02:02;;;;;;;9.00;3.20;;;;;;;3.86;100.00;99436.09;109517;1251;60126;-71
2024/03/17 05:04:29;;;;;;;7.90;3.00;;;;;;;3.83;100.00;99438.45;109506;1251;73856;-71
2024/03/17 05:06:55;;;;;;;9.30;3.70;;;;;;;3.83;100.00;99440.73;109529;1251;59771;-71
2024/03/17 05:09:22;;;;;;;11.40;3.60;;;;;;;3.84;100.00;99440.20;109561;1251;59828;-72
2024/03/17 05:11:52;;;;;;;8.90;4.40;;;;;;;3.86;100.00;99442.92;109514;1250;66253;-72
2024/03/17 05:14:21;;;;;;;8.40;4.10;;;;;;;3.95;100.00;99445.27;109576;1251;59745;-72
2024/03/17 05:16:49;;;;;;;8.80;3.50;;;;;;;3.98;100.00;99450.27;109564;1251;62988;-72
2024/03/17 05:19:17;;;;;;;10.30;3.30;;;;;;;4.10;100.00;99448.14;109521;1251;59788;-72
2024/03/17 05:21:44;;;;;;;7.40;3.10;;;;;;;4.35;100.00;99443.23;109583;1251;59845;-72
2024/03/17 05:24:14;;;;;;;8.60;3.90;;;;;;;4.63;100.00;99444.19;109568;1251;67884;-71
2024/03/17 05:26:42;;;;;;;13.00;3.60;;;;;;;4.95;100.00;99440.58;109554;1251;60121;-71
2024/03/17 05:29:09;;;;;;;8.10;3.70;;;;;;;5.11;100.00;99441.04;109512;1251;62801;-71
2024/03/17 05:31:35;;;;;;;8.50;4.30;;;;;;;5.15;100.00;99450.56;109571;1251;59727;-70
2024/03/17 05:34:02;;;;;;;8.30;3.80;;;;;;;5.13;100.00;99448.02;109589;1251;59777;-72
2024/03/17 05:36:32;;;;;;;6.90;3.50;;;;;;;5.09;100.00;99453.63;109573;1250;59978;-72
2024/03/17 05:38:59;;;;;;;6.40;3.60;;;;;;;5.05;100.00;99456.59;109577;1251;59806;-72
2024/03/17 05:41:26;;;;;;;8.20;4.50;;;;;;;4.99;100.00;99456.64;109544;1251;62677;-71
2024/03/17 05:43:52;;;;;;;8.10;4.20;;;;;;;5.01;100.00;99455.87;109532;1251;59815;-71
2024/03/17 05:46:21;;;;;;;7.90;5.00;;;;;;;5.31;100.00;99458.44;109554;1251;59670;-71
2024/03/17 05:48:48;;;;;;;9.20;5.40;;;;;;;5.65;100.00;99457.66;109549;1251;65629;-72
2024/03/17 05:51:16;;;;;;;10.10;5.10;;;;;;;5.85;100.00;99460.71;109384;1251;60166;-71
2024/03/17 05:53:44;;;;;;;10.40;4.10;;;;;;;5.79;100.00;99461.50;109430;1251;62718;-73
2024/03/17 05:56:15;;;;;;;9.80;5.20;;;;;;;5.77;100.00;99464.20;109519;1251;59859;-72
2024/03/17 05:58:42;;;;;;;6.60;4.40;;;;;;;5.80;100.00;99466.38;109542;1251;59839;-72
2024/03/17 06:01:09;;;;;;;8.70;4.20;;;;;;;5.96;100.00;99465.78;109525;1251;66860;-71
2024/03/17 06:03:35;;;;;;;6.00;3.70;;;;;;;6.08;100.00;99465.48;109592;1251;59739;-71
2024/03/17 06:06:03;;;;;;;7.40;3.70;;;;;;;6.03;100.00;99464.79;109520;1251;63906;-71
2024/03/17 06:08:30;;;;;;;7.50;4.00;;;;;;;5.92;100.00;99464.33;109341;1251;59789;-71
2024/03/17 06:11:00;;;;;;;8.30;4.60;;;;;;;5.81;100.00;99462.63;109610;1251;59729;-72
2024/03/17 06:13:28;;;;;;;9.00;5.30;;;;;;;5.75;100.00;99462.52;109554;1250;66951;-71
2024/03/17 06:15:54;;;;;;;8.90;5.30;;;;;;;5.69;100.00;99466.84;109206;1251;60266;-71
2024/03/17 06:18:21;;;;;;;8.70;5.80;;;;;;;5.66;100.00;99471.17;109547;1251;62847;-73
2024/03/17 06:20:48;;;;;;;9.30;6.20;;;;;;;5.73;100.00;99475.31;109518;1251;59768;-71
2024/03/17 06:23:18;;;;;;;8.50;5.20;;;;;;;5.79;100.00;99479.13;109493;1251;59886;-71
2024/03/17 06:25:46;;;;;;;8.30;6.00;;;;;;;5.77;100.00;99479.92;109560;1251;68035;-72
2024/03/17 06:28:15;;;;;;;9.60;4.60;;;;;;;5.66;100.00;99485.98;109591;1251;60251;-72
2024/03/17 06:30:42;;;;;;;10.40;5.10;;;;;;;5.60;100.00;99486.58;109560;1251;63908;-71
2024/03/17 06:33:12;;;;;;;11.20;5.30;;;;;;;5.60;100.00;99485.01;109512;1251;59772;-70
2024/03/17 06:35:39;;;;;;;10.60;5.30;;;;;;;5.68;100.00;99487.30;109551;1252;59773;-72
2024/03/17 06:38:09;;;;;;;11.70;5.90;;;;;;;5.74;100.00;99489.36;109495;1251;66862;-71
2024/03/17 06:40:37;;;;;;;9.30;5.80;;;;;;;5.75;100.00;99486.52;109575;1251;59763;-72
2024/03/17 06:43:03;;;;;;;12.40;6.40;;;;;;;5.79;100.00;99487.23;109557;1251;64440;-71
2024/03/17 06:45:30;;;;;;;10.10;6.40;;;;;;;5.74;100.00;99488.31;109554;1251;60264;-72
2024/03/17 06:47:56;;;;;;;11.70;6.60;;;;;;;5.77;100.00;99491.00;109290;1251;59820;-72
2024/03/17 06:50:23;;;;;;;11.80;6.40;;;;;;;5.79;100.00;99487.41;109574;1251;60163;-71
2024/03/17 06:52:49;;;;;;;8.90;5.10;;;;;;;5.73;100.00;99485.73;109521;1251;59838;-72
2024/03/17 06:55:16;;;;;;;8.20;5.50;;;;;;;5.72;100.00;99489.08;109563;1251;59798;-71
2024/03/17 06:57:43;;;;;;;9.70;5.70;;;;;;;5.78;100.00;99489.04;109536;1251;59817;-71
2024/03/17 07:00:14;;;;;;;9.80;5.60;;;;;;;5.86;100.00;99485.19;109552;1251;59801;-72
2024/03/17 07:02:43;;;;;;;6.60;5.00;;;;;;;5.96;100.00;99481.84;109381;1251;66245;-72
2024/03/17 07:05:16;;;;;;;11.80;5.70;;;;;;;5.99;100.00;99485.22;109565;1251;60083;-72
2024/03/17 07:07:43;;;;;;;10.40;5.50;;;;;;;6.05;100.00;99480.95;109524;1251;62840;-71
2024/03/17 07:10:11;;;;;;;9.00;4.20;;;;;;;6.15;100.00;99478.05;109503;1251;59729;-72
2024/03/17 07:12:38;;;;;;;8.90;4.30;;;;;;;6.19;100.00;99481.08;109567;1251;59696;-71
2024/03/17 07:15:05;;;;;;;8.80;4.00;;;;;;;6.15;100.00;99480.88;109521;1250;66528;-71
2024/03/17 07:17:32;;;;;;;6.60;4.40;;;;;;;6.09;100.00;99480.42;109538;1251;59801;-71
2024/03/17 07:19:59;;;;;;;7.20;4.30;;;;;;;6.08;100.00;99484.33;109527;1251;63286;-72
2024/03/17 07:22:26;;;;;;;7.90;4.90;;;;;;;6.02;100.00;99489.68;109532;1250;59779;-71
2024/03/17 07:25:00;;;;;;;8.20;4.60;;;;;;;6.04;100.00;99490.66;109578;1251;59969;-71
2024/03/17 07:27:29;;;;;;;8.10;4.50;;;;;;;6.14;100.00;99493.26;109519;1250;66731;-72
2024/03/17 07:29:56;;;;;;;6.40;3.70;;;;;;;6.21;100.00;99495.83;109568;1251;61442;-72
2024/03/17 07:32:25;;;;;;;6.00;3.80;;;;;;;6.36;100.00;99499.23;109395;1251;60074;-72
2024/03/17 07:34:52;;;;;;;7.00;4.80;;;;;;;6.58;100.00;99497.24;109556;1251;59922;-71
2024/03/17 07:37:18;;;;;;;6.90;4.40;;;;;;;6.73;100.00;99493.82;109542;1251;59695;-71
2024/03/17 07:39:48;;;;;;;9.40;4.30;;;;;;;6.76;100.00;99502.69;109543;1251;59810;-71
2024/03/17 07:42:14;;;;;;;5.90;3.50;;;;;;;6.72;100.00;99500.91;109572;1251;61275;-72
2024/03/17 07:44:43;;;;;;;8.10;3.70;;;;;;;6.77;100.00;99497.86;109549;1251;59846;-71
2024/03/17 07:47:10;;;;;;;5.50;3.40;;;;;;;6.85;100.00;99497.02;109496;1251;59793;-72
2024/03/17 07:49:36;;;;;;;8.50;3.00;;;;;;;6.86;100.00;99498.39;109388;1251;59831;-71
2024/03/17 07:52:03;;;;;;;6.90;2.90;;;;;;;6.82;100.00;99494.13;109528;1251;59772;-71
2024/03/17 07:54:29;;;;;;;7.00;2.80;;;;;;;6.78;100.00;99492.53;109538;1251;59753;-71
2024/03/17 07:56:55;;;;;;;6.00;3.00;;;;;;;6.78;100.00;99491.45;109548;1251;60163;-72
2024/03/17 07:59:22;;;;;;;7.60;3.40;;;;;;;6.73;100.00;99489.23;109576;1251;59900;-72
2024/03/17 08:01:48;;;;;;;6.20;3.10;;;;;;;6.71;100.00;99492.13;109554;1251;59919;-71
2024/03/17 08:04:14;;;;;;;6.70;4.40;;;;;;;6.75;100.00;99496.87;109588;1251;59780;-70
2024/03/17 08:06:41;;;;;;;5.40;3.90;;;;;;;6.71;100.00;99501.48;109573;1251;59797;-71
2024/03/17 08:09:08;;;;;;;7.30;3.70;;;;;;;6.64;100.00;99507.96;109558;1251;59937;-72
2024/03/17 08:11:35;;;;;;;8.20;3.30;;;;;;;6.70;100.00;99504.66;109493;1251;59741;-71
2024/03/17 08:14:02;;;;;;;7.40;3.60;;;;;;;6.82;100.00;99504.17;109588;1251;59746;-72
2024/03/17 08:16:29;;;;;;;4.60;2.90;;;;;;;6.96;100.00;99503.37;109550;1251;65648;-72
2024/03/17 08:18:56;;;;;;;3.90;2.80;;;;;;;7.00;100.00;99505.18;109558;1251;60503;-71
2024/03/17 08:21:24;;;;;;;7.10;2.90;;;;;;;7.03;100.00;99502.90;109551;1251;64318;-72
2024/03/17 08:23:51;;;;;;;6.80;2.70;;;;;;;7.27;100.00;99500.96;109571;1251;59801;-71
2024/03/17 08:26:18;;;;;;;4.10;2.80;;;;;;;7.60;100.00;99506.69;109516;1254;59824;-71
2024/03/17 08:28:46;;;;;;;5.80;2.80;;;;;;;7.86;100.00;99501.20;109549;1251;66978;-71
2024/03/17 08:31:15;;;;;;;7.50;2.60;;;;;;;7.98;100.00;99506.48;109579;1251;59851;-71
2024/03/17 08:33:41;;;;;;;4.20;2.00;;;;;;;7.89;100.00;99503.74;109601;1251;63172;-71
2024/03/17 08:36:08;;;;;;;6.80;2.10;;;;;;;7.64;100.00;99506.69;109531;1251;59773;-69
2024/03/17 08:38:36;;;;;;;5.40;2.30;;;;;;;7.43;100.00;99510.64;109618;1251;59863;-71
2024/03/17 08:41:10;;;;;;;3.40;1.70;;;;;;;7.22;100.00;99514.25;109580;1253;65623;-71
2024/03/17 08:43:37;;;;;;;4.60;2.50;;;;;;;7.12;100.00;99512.05;109550;1251;60169;-71
2024/03/17 08:46:06;;;;;;;4.10;2.60;;;;;;;7.25;100.00;99507.25;109586;1251;63749;-71
2024/03/17 08:48:34;;;;;;;8.80;2.60;;;;;;;7.45;100.00;99500.66;109205;1252;59899;-71
2024/03/17 08:51:02;;;;;;;6.40;2.70;;;;;;;7.46;100.00;99497.96;109579;1252;59635;-72
2024/03/17 08:53:29;;;;;;;6.20;2.70;;;;;;;7.52;100.00;99493.64;109491;1252;67007;-72
2024/03/17 08:55:56;;;;;;;5.70;2.10;;;;;;;7.63;100.00;99484.98;109530;1252;60141;-72
2024/03/17 08:58:23;;;;;;;5.10;2.60;;;;;;;7.74;100.00;99484.30;109525;1252;64099;-71
2024/03/17 09:00:50;;;;;;;6.70;2.40;;;;;;;7.90;97.40;99483.72;109390;1252;59904;-71
2024/03/17 09:03:18;;;;;;;4.20;2.10;;;;;;;7.99;94.50;99486.78;109569;1252;59789;-72
2024/03/17 09:05:47;;;;;;;4.50;1.90;;;;;;;7.95;92.16;99489.13;109530;1252;65509;-71
2024/03/17 09:08:21;;;;;;;7.40;2.90;;;;;;;7.81;90.68;99485.89;109571;1253;60182;-71
2024/03/17 09:10:49;;;;;;;4.00;1.90;;;;;;;7.67;89.23;99481.44;109503;1251;62545;-73
2024/03/17 09:13:26;;;;;;;6.10;2.90;;;;;;;7.63;89.33;99478.41;109521;1253;59842;-71
2024/03/17 09:16:01;;;;;;;4.30;2.10;;;;;;;7.60;85.52;99469.20;109522;1252;59689;-72
2024/03/17 09:18:33;;;;;;;4.60;2.40;;;;;;;7.67;86.02;99464.81;109527;1252;67019;-71
2024/03/17 09:21:01;;;;;;;4.90;2.40;;;;;;;7.86;85.43;99468.67;109551;1252;59777;-72
2024/03/17 09:23:30;;;;;;;4.50;2.10;;;;;;;8.02;81.36;99469.66;109512;1252;64125;-73
2024/03/17 09:26:02;;;;;;;5.30;1.70;;;;;;;8.13;80.93;99464.70;109505;1253;59780;-71
2024/03/17 09:28:29;;;;;;;3.90;1.70;;;;;;;8.11;80.10;99465.86;109486;1252;60388;-71
2024/03/17 09:30:57;;;;;;;3.10;2.00;;;;;;;8.08;81.62;99463.52;109564;1252;66634;-71
2024/03/17 09:33:25;;;;;;;5.40;1.40;;;;;;;8.07;79.80;99469.08;109552;1253;60235;-71
2024/03/17 09:35:55;;;;;;;3.10;1.50;;;;;;;8.12;80.81;99467.59;109538;1252;62439;-72
2024/03/17 09:38:21;;;;;;;;;;;;;;;8.22;81.02;99460.54;109534;1252;59853;-72
2024/03/17 09:40:51;;;;;;;2.70;1.30;;;;;;;8.30;79.26;99458.35;109543;1252;59685;-71
2024/03/17 09:43:17;;;;;;;5.60;1.70;;;;;;;8.11;76.44;99461.81;109553;1253;74219;-72
2024/03/17 09:45:44;;;;;;;4.80;1.90;;;;;;;8.02;78.86;99459.23;109496;1252;60138;-71
2024/03/17 09:48:19;;;;;;;4.80;1.50;;;;;;;8.17;78.07;99457.98;109335;1252;59827;-72
2024/03/17 09:50:55;;;;;;;4.20;1.60;;;;;;;8.30;76.59;99453.73;109531;1253;60105;-72
2024/03/17 09:53:28;;;;;;;3.00;1.40;;;;;;;8.42;77.76;99452.64;109571;1252;60018;-72
2024/03/17 09:56:01;;;;;;;7.10;1.50;;;;;;;8.60;77.76;99455.14;109509;1255;66707;-72
2024/03/17 09:58:27;;;;;;;4.00;2.30;;;;;;;8.63;75.41;99454.63;109585;1253;59901;-72
2024/03/17 10:00:54;;;;;;;3.10;1.50;;;;;;;8.62;75.27;99448.66;109532;1253;62501;-72
2024/03/17 10:03:45;;;;;;;5.60;1.90;;;;;;;8.64;75.81;99450.48;109421;1252;151810;-72
2024/03/17 10:06:16;;;;;;;2.80;1.40;;;;;;;8.75;73.71;99449.54;109521;1251;59918;-71
2024/03/17 10:08:48;;;;;;;2.50;1.50;;;;;;;8.76;70.29;99451.42;109506;1253;65378;-71
2024/03/17 10:11:16;;;;;;;6.40;1.80;;;;;;;8.63;69.45;99451.77;109257;1253;59882;-72
2024/03/17 10:13:44;;;;;;;4.20;1.40;;;;;;;8.51;71.17;99445.27;109525;1253;64164;-72
2024/03/17 10:16:22;;;;;;;6.30;1.70;;;;;;;8.58;71.93;99435.74;109230;1252;59810;-70
2024/03/17 10:18:48;;;;;;;7.00;1.50;;;;;;;8.62;70.93;99432.02;109556;1252;59835;-70
2024/03/17 10:21:30;;;;;;;2.40;1.20;;;;;;;8.50;70.42;99432.05;109515;1253;60039;-71
2024/03/17 10:24:10;;;;;;;3.30;1.60;;;;;;;8.59;70.43;99429.84;109517;1253;59830;-71
2024/03/17 10:26:43;;;;;;;4.10;2.20;;;;;;;8.64;68.99;99432.56;109509;1254;64081;-70
2024/03/17 10:29:30;;;;;;;4.50;1.90;;;;;;;8.78;68.69;99428.67;109481;1253;59752;-71
2024/03/17 10:32:25;;;;;;;4.40;1.50;;;;;;;8.97;67.09;99427.50;109506;1253;59916;-72
2024/03/17 10:34:51;;;;;;;4.70;2.40;;;;;;;9.21;67.93;99417.65;108949;1259;65644;-72
2024/03/17 10:37:24;;;;;;;3.30;1.70;;;;;;;9.38;68.35;99413.75;108949;1259;60125;-72
2024/03/17 10:39:55;;;;;;;3.70;1.70;;;;;;;9.51;68.89;99415.17;108941;1258;64063;-71
2024/03/17 10:42:28;;;;;;;3.30;1.90;;;;;;;9.68;68.26;99416.88;108926;1258;59843;-71
2024/03/17 10:44:55;;;;;;;3.30;1.30;;;;;;;9.75;68.76;99416.46;108965;1259;59958;-72
2024/03/17 10:47:26;;;;;;;3.20;1.60;;;;;;;9.78;68.86;99411.11;108963;1257;66874;-72
2024/03/17 10:49:55;;;;;;;4.00;1.40;;;;;;;9.72;67.00;99416.45;109052;1257;59920;-72
2024/03/17 10:52:25;;;;;;;4.20;1.60;;;;;;;9.53;67.30;99416.66;108999;1260;63770;-71
2024/03/17 10:54:53;;;;;;;3.70;1.70;;;;;;;9.46;66.64;99417.05;108997;1257;59811;-71
2024/03/17 10:57:32;;;;;;;4.60;1.80;;;;;;;9.26;65.02;99418.27;109024;1257;59817;-72
2024/03/17 11:00:03;;;;;;;4.70;1.90;;;;;;;8.98;65.55;99413.42;109008;1257;65674;-72
2024/03/17 11:02:32;;;;;;;5.90;1.90;;;;;;;8.87;66.63;99415.79;109018;1260;59863;-72
2024/03/17 11:05:01;;;;;;;2.50;1.50;;;;;;;8.79;66.81;99415.29;109025;1257;63765;-71
2024/03/17 11:07:28;;;;;;;5.70;1.70;;;;;;;8.71;66.55;99413.61;109042;1257;60177;-72
2024/03/17 11:09:55;;;;;;;4.40;2.10;;;;;;;8.61;65.59;99410.96;109044;1259;60013;-73
2024/03/17 11:12:42;;;;;;;5.20;1.80;;;;;;;8.53;66.11;99408.69;109346;1253;66874;-72
2024/03/17 11:15:24;;;;;;;3.00;1.60;;;;;;;8.42;65.51;99407.67;109503;1253;59783;-72
2024/03/17 11:17:53;;;;;;;5.50;1.80;;;;;;;8.39;66.99;99403.75;109471;1253;64718;-71
2024/03/17 11:20:24;;;;;;;4.30;1.70;;;;;;;8.40;66.08;99405.13;109442;1253;59757;-71
2024/03/17 11:22:52;;;;;;;5.20;1.80;;;;;;;8.26;65.61;99406.86;109515;1253;59979;-78
2024/03/17 11:25:31;;;;;;;3.40;1.80;;;;;;;8.15;66.59;99403.02;109469;1252;65416;-71
2024/03/17 11:27:58;;;;;;;4.50;1.80;;;;;;;8.13;66.72;99400.45;109459;1253;59798;-72
2024/03/17 11:33:31;;;;;;;4.40;1.90;;;;;;;8.26;66.64;99401.38;109434;1256;59775;-71